Time;durP1;ratioP1;P1;durP2;ratioP2;P2;SDS_P1;SDS_P2;PMS_P1;PMS_P2;Temp;Humidity;BMP_temperature;BMP_pressure;BME280_temperature;BME280_humidity;BME280_pressure;Samples;Min_cycle;Max_cycle;Signal;HPM_P1;HPM_P2
2023/04/29 00:01:34;;;;;;;12.60;10.05;;;;;;;7.10;100.00;101013.47;5072720;28;20034;-71
2023/04/29 00:03:59;;;;;;;12.35;9.40;;;;;;;7.14;100.00;101231.78;5072417;28;20511;-71
2023/04/29 00:06:25;;;;;;;13.73;8.85;;;;;;;6.81;100.00;101298.94;5071347;28;20537;-71
2023/04/29 00:08:51;;;;;;;10.80;7.90;;;;;;;6.91;100.00;101366.44;5072097;28;20059;-72
2023/04/29 00:11:16;;;;;;;10.48;7.38;;;;;;;6.93;100.00;101314.22;5070847;28;20032;-71
2023/04/29 00:13:42;;;;;;;10.07;7.53;;;;;;;6.39;100.00;101318.75;5071702;28;20089;-71
2023/04/29 00:16:09;;;;;;;8.93;7.75;;;;;;;6.87;100.00;101300.69;5070688;28;20067;-71
2023/04/29 00:18:35;;;;;;;12.55;7.53;;;;;;;6.75;100.00;101280.38;5071050;28;20036;-70
2023/04/29 00:21:01;;;;;;;13.07;9.20;;;;;;;7.12;100.00;101321.94;5072092;28;20468;-71
2023/04/29 00:23:26;;;;;;;12.77;9.32;;;;;;;6.61;100.00;101275.19;5071060;28;20028;-71
2023/04/29 00:25:52;;;;;;;12.15;9.00;;;;;;;6.83;100.00;101251.78;5072326;28;20033;-71
2023/04/29 00:28:19;;;;;;;13.50;9.43;;;;;;;6.52;100.00;101249.00;5071871;28;20036;-71
2023/04/29 00:30:45;;;;;;;12.20;9.20;;;;;;;7.15;100.00;101269.69;5070258;28;20123;-71
2023/04/29 00:33:11;;;;;;;13.00;9.40;;;;;;;6.51;100.00;101235.53;5071942;28;20119;-71
2023/04/29 00:35:37;;;;;;;15.15;9.10;;;;;;;6.56;100.00;101233.88;5070524;28;20544;-71
2023/04/29 00:38:02;;;;;;;13.10;9.15;;;;;;;7.10;100.00;101280.63;5070207;28;20032;-72
2023/04/29 00:40:28;;;;;;;14.23;9.18;;;;;;;6.96;100.00;101246.00;5070153;28;20078;-72
2023/04/29 00:42:53;;;;;;;14.50;8.82;;;;;;;6.37;100.00;101257.28;5069947;28;20040;-72
2023/04/29 00:45:19;;;;;;;12.05;9.15;;;;;;;6.66;100.00;101233.13;5070602;28;20033;-71
2023/04/29 00:47:44;;;;;;;11.40;9.07;;;;;;;6.77;100.00;101246.69;5071851;28;20033;-72
2023/04/29 00:50:10;;;;;;;12.35;9.10;;;;;;;7.00;100.00;101275.53;5071646;28;20127;-72
2023/04/29 00:52:37;;;;;;;18.02;9.45;;;;;;;7.03;100.00;101275.53;5070513;28;20034;-72
2023/04/29 00:55:04;;;;;;;13.77;9.45;;;;;;;6.91;100.00;101284.72;5071494;28;20491;-72
2023/04/29 00:57:30;;;;;;;11.23;8.40;;;;;;;6.67;100.00;101281.97;5071623;28;20039;-72
2023/04/29 00:59:57;;;;;;;10.27;8.02;;;;;;;6.41;100.00;101216.06;5070017;28;20025;-72
2023/04/29 01:02:24;;;;;;;11.23;7.97;;;;;;;6.64;100.00;101216.25;5070911;28;20029;-72
2023/04/29 01:04:49;;;;;;;8.45;7.30;;;;;;;6.80;100.00;101213.00;5071964;28;20058;-71
2023/04/29 01:07:22;;;;;;;9.63;7.22;;;;;;;6.73;100.00;101271.94;5071468;28;20115;-71
2023/04/29 01:10:00;;;;;;;9.30;6.88;;;;;;;6.73;100.00;101276.97;5071946;28;20029;-72
2023/04/29 01:12:33;;;;;;;11.05;7.00;;;;;;;7.07;100.00;101267.97;5070037;28;20101;-74
2023/04/29 01:15:15;;;;;;;8.77;7.22;;;;;;;6.93;100.00;101283.88;5070350;28;20401;-72
2023/04/29 01:17:46;;;;;;;10.18;7.15;;;;;;;6.87;100.00;101272.91;5069985;28;20524;-72
2023/04/29 01:20:13;;;;;;;11.18;7.82;;;;;;;6.92;100.00;101254.41;5069877;28;20032;-71
2023/04/29 01:22:39;;;;;;;11.77;7.25;;;;;;;6.61;100.00;101188.44;5070134;28;20032;-71
2023/04/29 01:25:05;;;;;;;12.55;7.75;;;;;;;6.77;100.00;101193.59;5070561;28;20028;-72
2023/04/29 01:28:05;;;;;;;10.07;7.95;;;;;;;6.91;100.00;101246.81;5071026;28;20478;-74
2023/04/29 01:31:01;;;;;;;13.85;8.30;;;;;;;6.49;100.00;101196.78;5071480;28;20032;-72
2023/04/29 01:34:04;;;;;;;10.52;7.65;;;;;;;6.92;100.00;101240.91;5069625;28;20105;-72
2023/04/29 01:36:57;;;;;;;8.45;7.15;;;;;;;7.12;100.00;101230.91;5070722;28;20036;-74
2023/04/29 01:39:36;;;;;;;12.25;8.02;;;;;;;6.47;100.00;101190.03;5070862;28;20131;-71
2023/04/29 01:42:14;;;;;;;10.70;8.00;;;;;;;6.66;100.00;101207.84;5075494;28;20099;-71
2023/04/29 01:44:41;;;;;;;17.77;8.90;;;;;;;6.29;100.00;101228.59;5074202;28;20033;-72
2023/04/29 01:47:12;;;;;;;13.57;8.77;;;;;;;6.11;100.00;101198.13;5073952;28;20035;-72
2023/04/29 01:49:38;;;;;;;12.17;7.07;;;;;;;5.51;100.00;101137.72;5074224;28;20028;-71
2023/04/29 01:52:04;;;;;;;18.42;9.63;;;;;;;5.90;100.00;101208.81;5073620;28;20361;-71
2023/04/29 01:54:30;;;;;;;18.08;9.85;;;;;;;5.67;100.00;101169.88;5075187;28;20111;-71
2023/04/29 01:56:56;;;;;;;18.77;10.80;;;;;;;6.06;100.00;101225.81;5074946;28;20505;-71
2023/04/29 01:59:21;;;;;;;18.08;10.15;;;;;;;5.95;100.00;101179.44;5073725;28;20522;-71
2023/04/29 02:01:47;;;;;;;16.55;9.40;;;;;;;6.39;100.00;101125.97;5070504;28;20060;-71
2023/04/29 02:04:13;;;;;;;17.48;10.15;;;;;;;6.42;100.00;101152.09;5054347;28;20039;-69
2023/04/29 02:06:38;;;;;;;17.75;9.98;;;;;;;6.48;100.00;101212.75;5068577;28;20086;-70
2023/04/29 02:09:03;;;;;;;22.02;10.82;;;;;;;6.32;100.00;101212.63;5072341;28;20505;-70
2023/04/29 02:11:29;;;;;;;26.83;11.50;;;;;;;5.95;100.00;101216.44;5073150;28;20028;-73
2023/04/29 02:13:55;;;;;;;19.33;11.10;;;;;;;5.62;100.00;101163.09;5073107;28;20426;-70
2023/04/29 02:16:20;;;;;;;20.73;10.50;;;;;;;5.83;100.00;101236.47;5072881;28;20089;-69
2023/04/29 02:18:46;;;;;;;18.05;10.18;;;;;;;6.27;100.00;101221.81;5073270;28;20033;-68
2023/04/29 02:21:11;;;;;;;12.75;8.60;;;;;;;5.53;100.00;101140.25;5073383;28;20032;-68
2023/04/29 02:23:37;;;;;;;14.00;8.20;;;;;;;6.28;100.00;101180.59;5073103;28;20028;-68
2023/04/29 02:26:05;;;;;;;10.93;8.07;;;;;;;6.35;100.00;101232.84;5074474;28;20032;-69
2023/04/29 02:28:32;;;;;;;12.55;8.02;;;;;;;6.38;100.00;101248.03;5073977;28;20024;-71
2023/04/29 02:30:57;;;;;;;15.57;8.45;;;;;;;6.27;100.00;101186.47;5072732;28;20115;-69
2023/04/29 02:33:22;;;;;;;12.65;8.05;;;;;;;5.70;100.00;101177.47;5072331;28;20127;-70
2023/04/29 02:35:48;;;;;;;10.27;8.13;;;;;;;6.16;100.00;101252.00;5071973;28;20078;-72
2023/04/29 02:38:13;;;;;;;33.88;21.65;;;;;;;6.08;100.00;101246.06;5072664;28;20522;-69
2023/04/29 02:40:43;;;;;;;39.67;25.02;;;;;;;5.46;100.00;101221.72;5073217;28;20479;-69
2023/04/29 02:43:09;;;;;;;22.10;12.00;;;;;;;8.56;100.00;101114.84;5071541;28;20510;-68
2023/04/29 02:45:35;;;;;;;29.92;21.40;;;;;;;6.21;100.00;101260.50;5072072;28;20048;-71
2023/04/29 02:48:00;;;;;;;43.42;27.48;;;;;;;5.79;100.00;101244.84;5073295;28;20099;-73
2023/04/29 02:50:26;;;;;;;24.67;13.32;;;;;;;9.43;100.00;101164.47;5071376;28;20032;-69
2023/04/29 02:52:51;;;;;;;26.48;18.30;;;;;;;6.70;100.00;101265.16;5072329;28;20032;-71
2023/04/29 02:55:17;;;;;;;36.90;24.30;;;;;;;6.17;100.00;101231.00;5072559;28;20570;-73
2023/04/29 02:57:43;;;;;;;33.22;20.30;;;;;;;6.00;100.00;101253.53;5073447;28;20037;-70
2023/04/29 03:00:09;;;;;;;22.40;13.75;;;;;;;5.64;100.00;101211.88;5071447;28;20029;-71
2023/04/29 03:02:35;;;;;;;29.08;16.80;;;;;;;5.86;100.00;101256.75;5071304;28;20101;-71
2023/04/29 03:05:00;;;;;;;24.45;16.58;;;;;;;5.95;100.00;101269.44;5072398;28;20523;-72
2023/04/29 03:07:27;;;;;;;23.83;14.65;;;;;;;5.94;100.00;101271.13;5072337;28;20029;-74
2023/04/29 03:09:53;;;;;;;26.52;15.95;;;;;;;5.74;100.00;101279.25;5071507;28;20056;-71
2023/04/29 03:12:19;;;;;;;21.75;15.02;;;;;;;5.67;100.00;101283.38;5072635;28;20472;-71
2023/04/29 03:14:45;;;;;;;14.02;10.07;;;;;;;5.77;100.00;101272.56;5071351;28;20043;-71
2023/04/29 03:17:10;;;;;;;13.70;9.50;;;;;;;5.35;100.00;101240.94;5072464;28;20036;-71
2023/04/29 03:19:36;;;;;;;19.40;10.20;;;;;;;6.02;100.00;101287.19;5072776;28;20035;-71
2023/04/29 03:22:04;;;;;;;19.20;12.23;;;;;;;5.48;100.00;101237.72;5073134;28;20056;-71
2023/04/29 03:24:29;;;;;;;46.13;32.80;;;;;;;5.87;100.00;101302.16;5073355;28;20035;-71
2023/04/29 03:26:55;;;;;;;15.80;12.10;;;;;;;5.62;100.00;101301.81;5071541;28;20036;-72
2023/04/29 03:29:20;;;;;;;15.20;11.75;;;;;;;5.31;100.00;101313.13;5071734;28;20182;-71
2023/04/29 03:31:46;;;;;;;17.17;12.40;;;;;;;5.31;100.00;101270.25;5072377;28;20124;-71
2023/04/29 03:34:13;;;;;;;15.80;11.63;;;;;;;5.54;100.00;101316.84;5072999;28;20414;-71
2023/04/29 03:36:39;;;;;;;16.52;10.50;;;;;;;5.26;100.00;101319.78;5071919;28;20079;-71
2023/04/29 03:39:04;;;;;;;16.08;9.25;;;;;;;4.99;100.00;101266.44;5071660;28;20098;-73
2023/04/29 03:41:30;;;;;;;17.30;10.95;;;;;;;5.07;100.00;101264.88;5073118;28;20024;-73
2023/04/29 03:43:59;;;;;;;16.02;13.75;;;;;;;5.09;100.00;101288.44;5072885;28;20147;-71
2023/04/29 03:46:25;;;;;;;16.25;12.88;;;;;;;5.09;100.00;101296.00;5071688;28;20028;-72
2023/04/29 03:48:51;;;;;;;12.77;8.82;;;;;;;5.12;100.00;101312.00;5071289;28;20123;-71
2023/04/29 03:51:17;;;;;;;12.98;9.30;;;;;;;5.25;100.00;101328.16;5072337;28;20112;-71
2023/04/29 03:53:43;;;;;;;16.60;10.57;;;;;;;5.57;100.00;101318.53;5072639;28;20031;-72
2023/04/29 03:56:08;;;;;;;15.45;12.13;;;;;;;5.37;100.00;101319.94;5071792;28;20044;-71
2023/04/29 03:58:34;;;;;;;18.58;11.13;;;;;;;5.48;100.00;101333.53;5072509;28;20457;-71
2023/04/29 04:00:59;;;;;;;16.52;10.35;;;;;;;5.63;100.00;101318.63;5071665;28;20445;-71
2023/04/29 04:03:26;;;;;;;23.13;16.15;;;;;;;5.75;100.00;101339.81;5071100;28;20111;-71
2023/04/29 04:05:51;;;;;;;23.60;16.30;;;;;;;6.07;100.00;101337.75;5072561;28;20037;-71
2023/04/29 04:08:17;;;;;;;21.52;15.27;;;;;;;5.74;100.00;101310.41;5071634;28;20024;-71
2023/04/29 04:10:43;;;;;;;23.15;15.45;;;;;;;5.92;100.00;101327.47;5072014;28;20075;-71
2023/04/29 04:13:08;;;;;;;23.70;16.15;;;;;;;5.98;100.00;101337.63;5072039;28;20055;-73
2023/04/29 04:15:34;;;;;;;28.88;17.80;;;;;;;5.88;100.00;101303.03;5070760;28;20035;-73
2023/04/29 04:18:00;;;;;;;33.42;19.85;;;;;;;5.95;100.00;101343.50;5072235;28;20036;-72
2023/04/29 04:20:25;;;;;;;27.52;20.30;;;;;;;6.24;100.00;101333.72;5072206;28;20036;-71
2023/04/29 04:22:51;;;;;;;27.83;17.63;;;;;;;6.19;100.00;101350.50;5071964;28;20085;-71
2023/04/29 04:25:16;;;;;;;22.27;15.75;;;;;;;5.79;100.00;101290.25;5072001;28;20171;-71
2023/04/29 04:27:42;;;;;;;26.95;17.77;;;;;;;5.97;100.00;101290.50;5070989;28;20033;-71
2023/04/29 04:30:07;;;;;;;23.90;15.35;;;;;;;6.19;100.00;101342.09;5070811;28;20174;-72
2023/04/29 04:32:33;;;;;;;22.15;16.90;;;;;;;6.39;100.00;101333.06;5069850;28;20441;-72
2023/04/29 04:34:58;;;;;;;21.40;15.50;;;;;;;6.35;100.00;101336.38;5070708;28;20048;-71
2023/04/29 04:37:24;;;;;;;24.30;15.57;;;;;;;6.48;100.00;101334.00;5070649;28;20033;-70
2023/04/29 04:39:49;;;;;;;16.85;11.93;;;;;;;6.07;100.00;101345.31;5070519;28;20029;-71
2023/04/29 04:42:15;;;;;;;13.15;9.38;;;;;;;6.34;100.00;101338.06;5071905;28;20032;-72
2023/04/29 04:44:40;;;;;;;15.68;10.60;;;;;;;6.49;100.00;101338.22;5070183;28;20036;-72
2023/04/29 04:47:06;;;;;;;15.93;9.00;;;;;;;6.87;100.00;101331.03;5070384;28;20497;-75
2023/04/29 04:49:31;;;;;;;13.38;9.38;;;;;;;6.76;100.00;101285.44;5069915;28;20036;-71
2023/04/29 04:51:57;;;;;;;16.92;11.10;;;;;;;7.38;100.00;101340.69;5071277;28;20036;-71
2023/04/29 04:54:22;;;;;;;19.83;16.20;;;;;;;7.02;100.00;101333.66;5069962;28;20028;-71
2023/04/29 04:56:50;;;;;;;26.05;19.48;;;;;;;7.68;100.00;101334.16;5069837;28;20543;-70
2023/04/29 04:59:16;;;;;;;28.10;21.58;;;;;;;7.57;100.00;101327.31;5070073;28;20115;-72
2023/04/29 05:01:41;;;;;;;26.40;23.50;;;;;;;8.08;100.00;101330.09;5070062;28;20170;-74
2023/04/29 05:04:07;;;;;;;21.13;17.58;;;;;;;8.03;100.00;101333.44;5070040;28;20047;-70
2023/04/29 05:06:32;;;;;;;10.35;7.80;;;;;;;7.47;100.00;101272.44;5070681;28;20106;-70
2023/04/29 05:08:58;;;;;;;10.98;8.02;;;;;;;7.75;100.00;101271.72;5069972;28;20456;-70
2023/04/29 05:11:23;;;;;;;10.00;6.72;;;;;;;7.24;100.00;101267.25;5069802;28;20560;-70
2023/04/29 05:13:48;;;;;;;14.30;10.77;;;;;;;8.42;100.00;101260.13;5070892;28;20139;-71
2023/04/29 05:16:16;;;;;;;10.13;7.72;;;;;;;9.16;100.00;101309.19;5069745;28;20025;-71
2023/04/29 05:18:43;;;;;;;13.98;7.47;;;;;;;9.31;100.00;101321.84;5069570;28;20036;-70
2023/04/29 05:21:09;;;;;;;10.85;7.20;;;;;;;7.96;100.00;101337.66;5071490;28;20085;-70
2023/04/29 05:23:34;;;;;;;12.75;8.32;;;;;;;8.37;100.00;101326.03;5070181;28;20032;-70
2023/04/29 05:26:00;;;;;;;13.93;8.32;;;;;;;9.57;100.00;101301.50;5070957;28;20032;-70
2023/04/29 05:28:25;;;;;;;11.80;8.50;;;;;;;9.56;100.00;101302.34;5069617;28;20392;-71
2023/04/29 05:30:50;;;;;;;11.52;8.85;;;;;;;10.26;100.00;101291.09;5069805;28;20117;-71
2023/04/29 05:33:16;;;;;;;19.98;13.35;;;;;;;10.03;100.00;101225.97;5070219;28;20024;-71
2023/04/29 05:35:41;;;;;;;18.35;13.80;;;;;;;10.00;100.00;101196.34;5071048;28;20170;-72
2023/04/29 05:38:07;;;;;;;12.90;9.93;;;;;;;10.60;100.00;101285.81;5069526;28;20517;-71
2023/04/29 05:40:32;;;;;;;15.77;12.68;;;;;;;11.13;100.00;101260.75;5069544;28;20033;-71
2023/04/29 05:42:58;;;;;;;10.43;8.40;;;;;;;11.11;100.00;101263.31;5069878;28;20440;-71
2023/04/29 05:45:24;;;;;;;10.73;6.75;;;;;;;10.91;100.00;101252.50;5071356;28;20041;-72
2023/04/29 05:47:49;;;;;;;13.52;8.18;;;;;;;11.79;100.00;101247.31;5068125;28;20024;-71
2023/04/29 05:50:15;;;;;;;10.07;7.45;;;;;;;11.19;100.00;101225.06;5070890;28;20035;-75
2023/04/29 05:52:40;;;;;;;8.65;7.13;;;;;;;11.69;100.00;101182.03;5070736;28;20036;-73
2023/04/29 05:55:06;;;;;;;10.93;7.13;;;;;;;11.11;100.00;101219.22;5070020;28;20075;-72
2023/04/29 05:57:31;;;;;;;8.45;7.30;;;;;;;12.01;100.00;101185.00;5069493;28;20036;-72
2023/04/29 05:59:58;;;;;;;14.00;7.05;;;;;;;11.90;100.00;101141.00;5069368;28;20127;-72
2023/04/29 06:02:24;;;;;;;8.70;6.55;;;;;;;12.44;100.00;101169.88;5069812;28;20024;-72
2023/04/29 06:04:50;;;;;;;9.38;6.90;;;;;;;12.18;100.00;101155.00;5069559;28;20085;-73
2023/04/29 06:07:16;;;;;;;8.85;7.15;;;;;;;12.55;100.00;101100.84;5070641;28;20029;-73
2023/04/29 06:09:42;;;;;;;8.27;6.32;;;;;;;12.88;100.00;101121.47;5069593;28;20123;-73
2023/04/29 06:12:08;;;;;;;9.05;6.78;;;;;;;13.37;100.00;101125.63;5069597;28;20032;-72
2023/04/29 06:14:34;;;;;;;6.32;5.60;;;;;;;12.72;100.00;101028.19;5069107;28;20064;-71
2023/04/29 06:16:59;;;;;;;11.57;7.05;;;;;;;12.30;100.00;101114.88;5068885;28;20119;-73
2023/04/29 06:19:24;;;;;;;10.60;7.35;;;;;;;13.69;100.00;101039.72;5069227;28;20037;-71
2023/04/29 06:21:50;;;;;;;9.05;6.63;;;;;;;13.65;100.00;101081.56;5069411;28;20025;-71
2023/04/29 06:24:15;;;;;;;8.77;6.10;;;;;;;12.91;100.00;101046.56;5070657;28;20032;-71
2023/04/29 06:26:41;;;;;;;9.13;7.20;;;;;;;13.03;100.00;101066.72;5072197;28;20109;-71
2023/04/29 06:29:06;;;;;;;10.55;6.95;;;;;;;13.15;100.00;101073.31;5073105;28;20052;-72
2023/04/29 06:31:32;;;;;;;11.65;7.80;;;;;;;14.23;100.00;101090.38;5073464;28;20028;-72
2023/04/29 06:33:57;;;;;;;13.77;8.82;;;;;;;13.59;100.00;101081.69;5074094;28;20033;-73
2023/04/29 06:36:23;;;;;;;6.93;5.55;;;;;;;13.33;100.00;101039.72;5074078;28;20116;-73
2023/04/29 06:38:48;;;;;;;7.70;4.70;;;;;;;13.59;100.00;101103.84;5074119;28;20037;-76
2023/04/29 06:41:13;;;;;;;7.43;5.38;;;;;;;14.11;100.00;101062.56;5074187;28;20036;-73
2023/04/29 06:43:39;;;;;;;9.55;5.35;;;;;;;13.61;100.00;101073.97;5074131;28;20092;-72
2023/04/29 06:46:10;;;;;;;8.73;5.65;;;;;;;13.90;100.00;101115.06;5072560;28;20038;-73
2023/04/29 06:48:36;;;;;;;8.27;5.00;;;;;;;14.08;100.00;101057.53;5073745;28;20040;-72
2023/04/29 06:51:01;;;;;;;6.53;4.72;;;;;;;14.22;100.00;101130.47;5073133;28;20033;-73
2023/04/29 06:53:27;;;;;;;7.28;5.20;;;;;;;14.27;100.00;101128.66;5073927;28;20031;-74
2023/04/29 06:55:53;;;;;;;7.15;5.60;;;;;;;13.22;100.00;101079.97;5073900;28;20028;-73
2023/04/29 06:58:19;;;;;;;8.88;5.30;;;;;;;13.76;100.00;101107.72;5072458;28;20097;-74
2023/04/29 07:00:46;;;;;;;7.82;5.07;;;;;;;12.65;100.00;101067.47;5072571;28;20491;-73
2023/04/29 07:03:12;;;;;;;6.45;5.40;;;;;;;14.35;100.00;101016.78;5072809;28;20478;-73
2023/04/29 07:05:46;;;;;;;7.47;5.47;;;;;;;14.12;100.00;101102.63;5073896;28;20085;-72
2023/04/29 07:08:12;;;;;;;8.35;5.53;;;;;;;14.27;100.00;101080.06;5072897;28;20063;-73
2023/04/29 07:10:39;;;;;;;7.95;5.43;;;;;;;13.51;100.00;101041.88;5072491;28;20032;-73
2023/04/29 07:13:04;;;;;;;7.90;5.05;;;;;;;14.36;100.00;101061.09;5072283;28;20049;-73
2023/04/29 07:15:33;;;;;;;7.53;4.85;;;;;;;14.33;100.00;101056.06;5073592;28;20056;-73
2023/04/29 07:17:59;;;;;;;8.25;4.65;;;;;;;13.41;100.00;101036.13;5072340;28;20032;-73
2023/04/29 07:20:26;;;;;;;6.00;4.20;;;;;;;13.19;100.00;101126.00;5072432;28;20024;-73
2023/04/29 07:22:51;;;;;;;8.77;4.93;;;;;;;15.70;100.00;101089.69;5073702;28;20029;-73
2023/04/29 07:25:17;;;;;;;9.27;7.20;;;;;;;15.23;100.00;101150.03;5073019;28;20029;-72
2023/04/29 07:27:42;;;;;;;6.97;3.72;;;;;;;16.03;100.00;101215.19;5072395;28;20039;-74
2023/04/29 07:30:08;;;;;;;7.38;3.80;;;;;;;16.13;100.00;101267.91;5072069;28;20219;-74
2023/04/29 07:32:33;;;;;;;10.57;7.03;;;;;;;15.72;100.00;101216.97;5072997;28;20120;-73
2023/04/29 07:34:59;;;;;;;7.55;4.50;;;;;;;15.47;100.00;101355.25;5073135;28;20119;-72
2023/04/29 07:37:25;;;;;;;8.93;4.68;;;;;;;15.93;100.00;101415.59;5073302;28;20028;-72
2023/04/29 07:39:51;;;;;;;4.30;3.50;;;;;;;13.62;100.00;101513.53;5071882;28;20036;-74
2023/04/29 07:42:17;;;;;;;7.78;5.15;;;;;;;14.83;100.00;101373.06;5071915;28;20025;-73
2023/04/29 07:44:44;;;;;;;9.15;5.32;;;;;;;16.39;100.00;101485.31;5063237;28;20029;-73
2023/04/29 07:47:10;;;;;;;6.72;4.20;;;;;;;16.50;100.00;101483.31;5052042;28;20021;-73
2023/04/29 07:49:35;;;;;;;6.07;3.30;;;;;;;16.09;100.00;101519.50;5068640;28;20037;-72
2023/04/29 07:52:01;;;;;;;3.95;3.00;;;;;;;16.51;100.00;101543.22;5068321;28;20143;-72
2023/04/29 07:54:26;;;;;;;6.82;3.60;;;;;;;15.74;100.00;101563.13;5050979;28;20081;-73
2023/04/29 07:56:52;;;;;;;6.72;3.50;;;;;;;15.82;100.00;101648.44;5052513;28;20029;-72
2023/04/29 07:59:17;;;;;;;5.15;3.17;;;;;;;15.67;100.00;101600.06;5052382;28;20033;-72
2023/04/29 08:01:42;;;;;;;6.05;3.55;;;;;;;16.54;100.00;101599.66;5051376;28;20025;-72
2023/04/29 08:04:08;;;;;;;7.95;3.72;;;;;;;17.31;100.00;101555.41;5051090;28;20033;-72
2023/04/29 08:06:34;;;;;;;6.80;3.10;;;;;;;17.15;100.00;101594.50;5050809;28;20029;-73
2023/04/29 08:09:00;;;;;;;6.25;3.40;;;;;;;16.96;100.00;101681.53;5051143;28;20052;-72
2023/04/29 08:11:26;;;;;;;7.32;3.20;;;;;;;17.14;100.00;101649.34;5052180;28;20033;-77
2023/04/29 08:13:55;;;;;;;5.00;3.25;;;;;;;17.21;100.00;101710.84;5049933;28;20048;-73
2023/04/29 08:16:23;;;;;;;7.05;3.33;;;;;;;16.81;100.00;101707.66;5067685;28;20032;-74
2023/04/29 08:18:48;;;;;;;6.97;3.00;;;;;;;16.26;100.00;101748.38;5067633;28;20032;-72
2023/04/29 08:21:14;;;;;;;3.90;2.80;;;;;;;16.28;100.00;101732.03;5067062;28;20502;-73
2023/04/29 08:23:40;;;;;;;4.53;3.00;;;;;;;17.76;100.00;101746.19;5051735;28;20033;-72
2023/04/29 08:26:05;;;;;;;7.93;3.13;;;;;;;15.64;100.00;101749.72;5067050;28;20025;-72
2023/04/29 08:28:30;;;;;;;7.05;3.88;;;;;;;17.47;100.00;101807.84;5067214;28;20472;-73
2023/04/29 08:30:56;;;;;;;5.32;2.95;;;;;;;18.89;100.00;101794.16;5051799;28;20036;-73
2023/04/29 08:33:22;;;;;;;8.68;3.40;;;;;;;17.83;100.00;101819.72;5051638;28;20502;-74
2023/04/29 08:35:47;;;;;;;6.55;3.30;;;;;;;17.88;100.00;101739.81;5067550;28;20025;-72
2023/04/29 08:38:13;;;;;;;4.35;3.40;;;;;;;18.12;100.00;101870.41;5052421;28;20108;-74
2023/04/29 08:40:47;;;;;;;4.82;3.00;;;;;;;18.14;100.00;101828.25;5051507;28;20056;-76
2023/04/29 08:43:14;;;;;;;5.95;3.42;;;;;;;17.00;100.00;101778.25;5052430;28;20033;-73
2023/04/29 08:45:40;;;;;;;8.82;3.50;;;;;;;18.69;100.00;101822.31;5067534;28;20033;-73
2023/04/29 08:48:07;;;;;;;4.68;3.05;;;;;;;18.59;100.00;101800.31;5051463;28;20474;-74
2023/04/29 08:50:40;;;;;;;4.80;3.25;;;;;;;18.37;100.00;101706.53;5051441;28;20037;-72
2023/04/29 08:53:06;;;;;;;5.57;3.90;;;;;;;18.00;100.00;101575.56;5062636;28;20119;-77
2023/04/29 08:55:45;;;;;;;6.97;4.00;;;;;;;17.42;100.00;101423.94;5050609;28;20075;-72
2023/04/29 08:58:12;;;;;;;6.43;3.80;;;;;;;19.48;100.00;101223.63;5067125;28;20098;-73
2023/04/29 09:00:40;;;;;;;6.72;3.50;;;;;;;18.87;100.00;101037.28;5050424;28;20033;-72
2023/04/29 09:03:15;;;;;;;8.43;4.20;;;;;;;19.24;100.00;100943.59;5067044;28;20043;-73
2023/04/29 09:05:42;;;;;;;8.82;4.22;;;;;;;18.73;100.00;100936.56;5050977;28;20035;-72
2023/04/29 09:08:07;;;;;;;7.30;3.53;;;;;;;19.53;100.00;100989.50;5050350;28;20036;-73
2023/04/29 09:10:36;;;;;;;5.63;2.85;;;;;;;18.12;100.00;101119.47;5051041;28;20356;-73
2023/04/29 09:13:02;;;;;;;6.25;3.40;;;;;;;17.42;100.00;101143.66;5051224;28;20045;-73
2023/04/29 09:15:28;;;;;;;6.85;2.97;;;;;;;18.32;100.00;100843.16;5066757;28;20403;-75
2023/04/29 09:17:53;;;;;;;7.10;3.72;;;;;;;18.79;100.00;100931.13;5066821;28;20033;-73
2023/04/29 09:20:18;;;;;;;9.50;4.50;;;;;;;20.11;100.00;100934.03;5050916;28;20040;-75
2023/04/29 09:22:52;;;;;;;7.53;3.33;;;;;;;18.72;100.00;101032.78;5067150;28;20436;-73
2023/04/29 09:25:18;;;;;;;11.85;5.63;;;;;;;19.71;100.00;100973.09;5051212;28;20039;-72
2023/04/29 09:27:43;;;;;;;5.72;3.58;;;;;;;18.51;100.00;100905.81;5049656;28;20033;-72
2023/04/29 09:30:11;;;;;;;6.30;3.67;;;;;;;17.87;100.00;100923.22;5066231;28;20052;-72
2023/04/29 09:32:37;;;;;;;5.03;3.08;;;;;;;17.86;100.00;101000.47;5050822;28;20028;-72
2023/04/29 09:35:28;;;;;;;4.95;3.13;;;;;;;18.19;100.00;101078.88;5051510;28;20033;-73
2023/04/29 09:38:11;;;;;;;3.90;2.90;;;;;;;18.42;100.00;101070.19;5047342;28;20503;-72
2023/04/29 09:40:37;;;;;;;6.28;2.90;;;;;;;19.62;100.00;100989.88;5051016;28;20037;-72
2023/04/29 09:43:11;;;;;;;4.32;2.90;;;;;;;18.04;100.00;101056.34;5051141;28;20047;-74
2023/04/29 09:45:38;;;;;;;6.43;3.00;;;;;;;19.55;100.00;101013.47;5066728;28;20105;-72
2023/04/29 09:48:05;;;;;;;8.32;3.00;;;;;;;19.23;100.00;101003.81;5049741;28;20033;-72
2023/04/29 09:50:38;;;;;;;7.60;2.88;;;;;;;17.89;100.00;101018.34;5050875;28;20066;-71
2023/04/29 09:53:06;;;;;;;6.50;3.13;;;;;;;18.99;100.00;100944.75;5066464;28;20033;-74
2023/04/29 09:55:31;;;;;;;9.30;4.82;;;;;;;18.18;100.00;100964.75;5066783;28;20048;-73
2023/04/29 09:57:57;;;;;;;5.18;3.05;;;;;;;19.55;100.00;101078.00;5065994;28;20126;-74
2023/04/29 10:00:24;;;;;;;5.53;3.00;;;;;;;19.09;100.00;101057.78;5066949;28;20135;-72
2023/04/29 10:02:52;;;;;;;7.10;3.50;;;;;;;19.47;100.00;101007.84;5069912;28;20029;-73
2023/04/29 10:05:18;;;;;;;6.00;3.28;;;;;;;18.95;100.00;100948.41;5069873;28;20033;-72
2023/04/29 10:07:45;;;;;;;7.63;4.00;;;;;;;18.43;100.00;100856.38;5055058;28;20029;-72
2023/04/29 10:10:12;;;;;;;5.53;3.38;;;;;;;19.23;100.00;100963.41;5054942;28;20025;-72
2023/04/29 10:12:39;;;;;;;6.75;2.80;;;;;;;19.08;100.00;100885.94;5069830;28;20136;-72
2023/04/29 10:15:26;;;;;;;3.80;2.72;;;;;;;19.02;100.00;100905.09;5054431;28;20450;-73
2023/04/29 10:17:58;;;;;;;5.28;3.05;;;;;;;18.25;100.00;100831.44;5054058;28;20123;-73
2023/04/29 10:20:24;;;;;;;5.30;3.35;;;;;;;19.75;100.00;100827.50;5054086;28;20499;-73
2023/04/29 10:22:53;;;;;;;9.82;3.22;;;;;;;19.82;100.00;100792.72;5054309;28;20029;-72
2023/04/29 10:25:21;;;;;;;6.30;3.60;;;;;;;19.50;100.00;100837.41;5053261;28;20033;-73
2023/04/29 10:27:48;;;;;;;5.90;3.35;;;;;;;19.26;100.00;100846.34;5069331;28;20163;-72
2023/04/29 10:30:16;;;;;;;5.38;3.00;;;;;;;20.53;100.00;100853.44;5069294;28;20103;-72
2023/04/29 10:32:46;;;;;;;6.22;3.30;;;;;;;20.60;100.00;100797.94;5054096;28;20498;-73
2023/04/29 10:35:13;;;;;;;10.75;3.70;;;;;;;20.04;100.00;100735.59;5051941;28;20029;-73
2023/04/29 10:37:44;;;;;;;4.88;3.28;;;;;;;19.98;100.00;100721.28;5069411;28;20040;-73
2023/04/29 10:40:12;;;;;;;4.60;3.05;;;;;;;20.55;100.00;100743.91;5054459;28;20120;-72
2023/04/29 10:42:41;;;;;;;13.57;3.47;;;;;;;20.22;100.00;100605.50;5069429;28;20047;-73
2023/04/29 10:45:26;;;;;;;10.40;3.50;;;;;;;18.54;100.00;100528.78;5054211;28;20065;-72
2023/04/29 10:48:00;;;;;;;5.65;3.67;;;;;;;20.23;100.00;100550.31;5053078;28;20040;-73
2023/04/29 10:50:32;;;;;;;10.15;3.45;;;;;;;19.88;100.00;100428.44;5069770;28;20119;-72
2023/04/29 10:53:03;;;;;;;6.13;3.10;;;;;;;20.34;100.00;100331.78;5069715;28;20055;-72
2023/04/29 10:55:30;;;;;;;6.53;3.33;;;;;;;21.25;100.00;100272.41;5069757;28;20497;-73
2023/04/29 10:57:56;;;;;;;5.30;2.88;;;;;;;20.15;100.00;100243.47;5068742;28;20083;-72
2023/04/29 11:00:30;;;;;;;3.67;3.00;;;;;;;20.21;100.00;100186.31;5052840;28;20028;-73
2023/04/29 11:02:57;;;;;;;5.38;2.90;;;;;;;20.50;100.00;100112.09;5053758;28;20056;-73
2023/04/29 11:05:33;;;;;;;8.48;3.58;;;;;;;20.58;100.00;99996.13;5069245;28;20040;-72
2023/04/29 11:08:12;;;;;;;6.22;3.00;;;;;;;20.09;100.00;99828.19;5069205;28;20032;-72
2023/04/29 11:10:42;;;;;;;6.82;3.78;;;;;;;20.74;100.00;99802.88;5053964;28;20468;-73
2023/04/29 11:13:25;;;;;;;7.20;3.50;;;;;;;20.94;100.00;99607.56;5051981;28;20475;-72
2023/04/29 11:16:04;;;;;;;5.32;3.03;;;;;;;21.58;100.00;99627.53;5069186;28;20037;-72